Oaks, Oklahoma
Current Conditions -  °F | °C
As of 11:55 AM on Friday 24 Oct 2014 (Local Time) from KTQH Reporting Station
Clear Clear  
Wind Chill: 68°   Ceiling: Unl
Heat Index: 68°   Visibility: 10mi
Dew Point: 55°   Wind: 7mph
Humidity: 64%   Direction: 210°SSW
Pressure: 30.15"   Gusts: NA
Location:  36.17°N, 94.85°W
Report Text: KTQH 241655Z AUTO 21006KT 10SM CLR 20/13 A3015 RMK AO2
Loading
Personal Weather Stations






























Interactive Weather Map New forecast layout! Learn more

10-Day Weather Forecast

Advertisements
Track Severe Weather on mobile